Time;durP1;ratioP1;P1;durP2;ratioP2;P2;SDS_P1;SDS_P2;PMS_P1;PMS_P2;Temp;Humidity;BMP_temperature;BMP_pressure;BME280_temperature;BME280_humidity;BME280_pressure;Samples;Min_cycle;Max_cycle;Signal;HPM_P1;HPM_P2
2021/07/08 00:03:31;;;;;;;1.00;0.70;;;22.10;34.90;;;;;;20858440;28;20414;-65
2021/07/08 00:13:33;;;;;;;1.93;0.77;;;22.10;34.90;;;;;;20834245;28;20053;-68
2021/07/08 00:23:35;;;;;;;2.65;0.77;;;22.00;34.90;;;;;;20828533;28;20072;-66
2021/07/08 00:33:37;;;;;;;3.03;0.70;;;21.90;35.00;;;;;;20810865;28;20095;-69
2021/07/08 00:43:39;;;;;;;;;;;21.90;35.20;;;;;;20828091;28;20060;-67
2021/07/08 00:53:41;;;;;;;1.85;0.88;;;21.60;36.10;;;;;;20838844;28;20000;-65
2021/07/08 01:03:44;;;;;;;1.63;1.07;;;21.40;37.60;;;;;;20842764;28;20509;-67
2021/07/08 01:13:45;;;;;;;2.15;0.80;;;21.20;38.50;;;;;;20842467;28;20053;-68
2021/07/08 01:23:47;;;;;;;2.38;1.00;;;21.00;40.20;;;;;;20840955;28;20203;-67
2021/07/08 01:33:49;;;;;;;2.55;1.70;;;20.90;41.40;;;;;;20841004;28;20501;-67
2021/07/08 01:43:51;;;;;;;1.53;0.80;;;20.70;42.50;;;;;;20839207;28;20049;-66
2021/07/08 01:53:53;;;;;;;1.73;0.88;;;20.50;43.30;;;;;;20839311;28;20520;-65
2021/07/08 02:03:55;;;;;;;3.53;0.90;;;20.30;44.40;;;;;;20838684;28;20111;-69
2021/07/08 02:13:56;;;;;;;3.63;0.90;;;20.10;44.80;;;;;;20818794;28;20053;-68
2021/07/08 02:23:58;;;;;;;1.38;0.73;;;20.10;45.30;;;;;;20835958;28;20093;-69
2021/07/08 02:33:59;;;;;;;2.63;0.77;;;20.20;45.20;;;;;;20835913;28;20053;-66
2021/07/08 02:44:02;;;;;;;1.17;0.70;;;19.80;46.00;;;;;;20834773;28;20056;-67
2021/07/08 02:54:03;;;;;;;1.17;0.90;;;19.70;46.30;;;;;;20833935;28;20049;-67
2021/07/08 03:04:05;;;;;;;1.42;0.88;;;19.50;46.90;;;;;;20833133;28;20099;-63
2021/07/08 03:14:06;;;;;;;3.00;0.93;;;19.30;47.20;;;;;;20832372;28;20061;-67
2021/07/08 03:24:08;;;;;;;3.47;0.90;;;19.20;47.70;;;;;;20835971;28;20406;-65
2021/07/08 03:34:09;;;;;;;1.70;0.73;;;19.20;47.60;;;;;;20814005;28;20135;-67
2021/07/08 03:44:19;;;;;;;1.55;0.98;;;19.00;48.20;;;;;;20830812;28;20405;-64
2021/07/08 03:54:26;;;;;;;1.30;0.80;;;18.90;48.30;;;;;;20830162;28;20084;-67
2021/07/08 04:04:38;;;;;;;1.33;0.90;;;18.80;48.60;;;;;;20830839;28;20437;-68
2021/07/08 04:14:46;;;;;;;2.45;1.17;;;18.80;48.70;;;;;;20831122;28;20050;-68
2021/07/08 04:24:56;;;;;;;1.55;1.00;;;18.70;48.80;;;;;;20834655;28;20067;-68
2021/07/08 04:35:10;;;;;;;2.30;1.02;;;18.60;49.30;;;;;;20848025;28;20056;-69
2021/07/08 04:45:19;;;;;;;2.13;1.15;;;18.30;50.00;;;;;;20851514;28;20052;-69
2021/07/08 04:55:37;;;;;;;4.00;1.55;;;18.30;50.00;;;;;;20855735;28;20401;-68
2021/07/08 05:05:40;;;;;;;1.92;1.20;;;18.40;49.80;;;;;;20888270;28;20081;-68
2021/07/08 05:15:51;;;;;;;2.92;1.77;;;18.20;50.10;;;;;;20867430;28;20110;-68
2021/07/08 05:25:53;;;;;;;14.27;2.55;;;18.30;49.90;;;;;;20860712;28;20046;-64
2021/07/08 05:35:55;;;;;;;1.77;1.23;;;18.20;50.00;;;;;;20854055;28;20055;-67
2021/07/08 05:45:56;;;;;;;1.85;1.20;;;18.20;50.20;;;;;;20878354;28;20054;-66
2021/07/08 05:55:58;;;;;;;3.85;1.70;;;18.30;49.80;;;;;;20914955;28;20060;-68
2021/07/08 06:06:00;;;;;;;3.15;1.40;;;18.30;50.00;;;;;;20839993;28;20053;-68
2021/07/08 06:16:02;;;;;;;3.15;1.10;;;18.20;49.80;;;;;;20836788;28;20132;-64
2021/07/08 06:26:04;;;;;;;2.80;1.30;;;18.20;49.60;;;;;;20836164;28;20049;-68
2021/07/08 06:36:08;;;;;;;3.00;1.50;;;18.20;49.80;;;;;;20835265;28;20092;-69
2021/07/08 06:46:14;;;;;;;2.50;1.30;;;18.40;49.20;;;;;;20834270;28;20474;-67
2021/07/08 06:56:18;;;;;;;4.38;1.25;;;18.70;48.60;;;;;;20834719;28;20057;-69
2021/07/08 07:06:21;;;;;;;2.35;1.20;;;19.00;47.90;;;;;;20834408;28;20489;-68
2021/07/08 07:16:27;;;;;;;2.40;1.40;;;19.50;46.30;;;;;;20832733;28;20093;-68
2021/07/08 07:26:28;;;;;;;3.15;1.23;;;20.20;44.80;;;;;;20831777;28;20053;-68
2021/07/08 07:36:31;;;;;;;2.47;1.80;;;21.20;42.90;;;;;;20831873;28;20095;-65
2021/07/08 07:46:34;;;;;;;2.97;1.40;;;21.60;42.20;;;;;;20830602;28;20076;-66
2021/07/08 07:56:36;;;;;;;3.07;1.20;;;21.70;41.30;;;;;;20830917;28;20088;-65
2021/07/08 08:17:00;;;;;;;3.17;1.10;;;22.40;39.90;;;;;;20829246;28;20050;-66
2021/07/08 08:27:04;;;;;;;3.28;1.10;;;23.10;38.60;;;;;;20830558;28;20057;-67
2021/07/08 08:37:07;;;;;;;2.42;0.95;;;23.50;38.10;;;;;;20830953;28;20053;-69
2021/07/08 08:47:12;;;;;;;4.22;1.20;;;23.90;36.90;;;;;;20831381;28;20045;-67
2021/07/08 08:57:15;;;;;;;2.30;1.10;;;24.20;36.60;;;;;;20829969;28;20063;-64
2021/07/08 09:07:21;;;;;;;2.83;1.10;;;24.50;35.90;;;;;;20828135;28;20072;-65
2021/07/08 09:17:23;;;;;;;2.75;1.15;;;24.30;35.80;;;;;;20839748;28;20049;-63
2021/07/08 09:27:27;;;;;;;2.38;1.15;;;24.50;35.70;;;;;;20843755;28;20072;-67
2021/07/08 09:37:29;;;;;;;1.45;0.80;;;24.90;34.90;;;;;;20842337;28;20504;-65
2021/07/08 09:47:34;;;;;;;1.38;0.90;;;25.00;34.30;;;;;;20822689;28;20049;-68
2021/07/08 09:57:48;;;;;;;2.50;1.00;;;25.30;33.60;;;;;;20839605;28;20458;-67
2021/07/08 10:07:49;;;;;;;;;;;25.40;33.10;;;;;;20838297;28;20041;-68
2021/07/08 10:17:51;;;;;;;3.78;1.23;;;25.60;32.70;;;;;;20837158;28;19936;-63
2021/07/08 10:27:54;;;;;;;;;;;25.80;32.40;;;;;;20836068;28;20049;-63
2021/07/08 10:37:55;;;;;;;1.75;0.80;;;25.70;32.40;;;;;;20836597;28;20388;-65
2021/07/08 10:48:11;;;;;;;0.73;0.60;;;25.70;31.40;;;;;;20835306;28;20477;-67
2021/07/08 10:58:35;;;;;;;2.28;0.73;;;25.80;31.30;;;;;;20816292;28;20058;-68
2021/07/08 11:09:04;;;;;;;1.85;1.02;;;25.80;31.50;;;;;;20835945;28;20049;-68
2021/07/08 11:19:06;;;;;;;2.80;1.10;;;25.70;31.30;;;;;;20806872;28;20063;-65
2021/07/08 11:29:10;;;;;;;2.03;1.10;;;25.90;31.30;;;;;;20834099;28;20056;-65
2021/07/08 11:39:12;;;;;;;1.70;0.88;;;26.00;29.60;;;;;;20833396;28;20045;-66
2021/07/08 11:49:16;;;;;;;1.42;0.70;;;26.20;29.60;;;;;;20833512;28;20049;-66
2021/07/08 11:59:17;;;;;;;1.48;1.00;;;26.30;28.00;;;;;;20834499;28;20049;-67
2021/07/08 12:09:21;;;;;;;1.80;0.73;;;26.30;28.20;;;;;;20830268;28;20050;-67
2021/07/08 12:19:27;;;;;;;1.05;0.60;;;26.40;27.70;;;;;;20829473;28;20061;-68
2021/07/08 12:29:39;;;;;;;3.17;0.68;;;26.40;26.50;;;;;;20827957;28;20096;-61
2021/07/08 12:39:41;;;;;;;1.83;1.15;;;26.60;27.20;;;;;;20828017;28;20477;-67
2021/07/08 12:49:49;;;;;;;2.28;0.90;;;26.60;27.50;;;;;;20837146;28;20049;-67
2021/07/08 12:59:59;;;;;;;2.88;0.82;;;26.70;26.90;;;;;;20844375;28;20049;-71
2021/07/08 13:10:04;;;;;;;1.38;0.85;;;27.10;26.50;;;;;;20844911;28;20049;-65
2021/07/08 13:20:10;;;;;;;3.45;0.80;;;27.10;26.40;;;;;;20843284;28;20057;-69
2021/07/08 13:30:31;;;;;;;2.05;1.00;;;27.30;26.20;;;;;;20842764;28;20050;-69
2021/07/08 13:40:33;;;;;;;3.17;1.00;;;27.50;25.90;;;;;;20842320;28;20460;-71
2021/07/08 13:50:35;;;;;;;1.77;0.70;;;27.60;25.90;;;;;;20840645;28;20048;-69
2021/07/08 14:00:38;;;;;;;1.80;1.00;;;27.60;26.70;;;;;;20839830;28;20130;-66
2021/07/08 14:10:40;;;;;;;4.80;0.85;;;28.00;26.00;;;;;;20838699;28;20057;-65
2021/07/08 14:20:42;;;;;;;2.70;0.95;;;28.00;25.60;;;;;;20836505;28;20149;-69
2021/07/08 14:30:44;;;;;;;4.13;1.10;;;28.10;25.30;;;;;;20836735;28;20100;-66
2021/07/08 14:40:49;;;;;;;1.63;1.00;;;28.10;25.00;;;;;;20836464;28;20140;-66
2021/07/08 14:50:51;;;;;;;2.22;0.60;;;28.20;24.90;;;;;;20835529;28;20053;-67
2021/07/08 15:00:53;;;;;;;1.92;1.10;;;28.30;24.70;;;;;;20835009;28;20053;-68
2021/07/08 15:10:59;;;;;;;2.45;0.80;;;28.40;24.90;;;;;;20832807;28;20041;-64
2021/07/08 15:21:01;;;;;;;2.00;0.80;;;28.60;24.50;;;;;;20834004;28;20144;-65
2021/07/08 15:31:03;;;;;;;2.15;0.90;;;28.70;24.30;;;;;;20834095;28;20087;-66
2021/07/08 15:41:05;;;;;;;2.75;1.00;;;28.60;24.10;;;;;;20831521;28;20049;-64
2021/07/08 15:51:07;;;;;;;1.42;0.85;;;28.60;24.40;;;;;;20830825;28;20046;-64
2021/07/08 16:01:13;;;;;;;1.88;0.90;;;28.70;24.40;;;;;;20829511;28;20050;-65
2021/07/08 16:11:17;;;;;;;1.50;0.80;;;28.90;24.10;;;;;;20825300;28;20482;-65
2021/07/08 16:21:22;;;;;;;1.65;0.98;;;28.90;24.30;;;;;;20835030;28;20794;-63
2021/07/08 16:31:24;;;;;;;2.20;0.93;;;29.10;24.00;;;;;;20844646;28;20046;-66
2021/07/08 16:41:25;;;;;;;1.88;1.00;;;29.20;23.80;;;;;;20843730;28;20081;-62
2021/07/08 16:51:27;;;;;;;2.33;0.85;;;29.20;24.00;;;;;;20844046;28;20053;-68
2021/07/08 17:01:29;;;;;;;2.30;1.40;;;29.40;23.50;;;;;;20843808;28;20045;-64
2021/07/08 17:11:30;;;;;;;2.78;1.00;;;29.50;23.70;;;;;;20825094;28;20046;-63
2021/07/08 17:21:33;;;;;;;3.38;1.25;;;29.60;23.30;;;;;;20841842;28;20104;-67
2021/07/08 17:31:34;;;;;;;3.70;1.00;;;29.60;23.50;;;;;;20823201;28;20111;-66
2021/07/08 17:41:37;;;;;;;1.85;0.88;;;29.60;23.40;;;;;;20840210;28;20501;-63
2021/07/08 17:51:39;;;;;;;1.70;0.82;;;29.40;23.50;;;;;;20839390;28;20057;-72
2021/07/08 18:01:40;;;;;;;2.10;0.85;;;29.20;23.60;;;;;;20838708;28;20055;-65
2021/07/08 18:11:42;;;;;;;2.35;1.00;;;29.10;23.60;;;;;;20840501;28;20434;-62
2021/07/08 18:21:43;;;;;;;2.38;1.20;;;29.10;23.70;;;;;;20839103;28;20061;-69
2021/07/08 18:31:45;;;;;;;3.05;1.20;;;29.10;24.00;;;;;;20837517;28;20061;-73
2021/07/08 18:41:47;;;;;;;1.60;1.10;;;29.00;24.40;;;;;;20840116;28;20060;-72
2021/07/08 18:51:49;;;;;;;2.58;0.90;;;28.90;24.40;;;;;;20836008;28;20057;-67
2021/07/08 19:01:50;;;;;;;3.03;1.23;;;28.70;24.40;;;;;;20835443;28;20049;-67
2021/07/08 19:11:52;;;;;;;4.10;1.05;;;28.60;24.50;;;;;;20837522;28;20397;-63
2021/07/08 19:21:54;;;;;;;4.28;1.35;;;28.60;24.90;;;;;;20834988;28;20053;-62
2021/07/08 19:31:58;;;;;;;2.20;1.25;;;28.40;25.00;;;;;;20815548;28;20138;-62
2021/07/08 19:42:00;;;;;;;3.72;1.98;;;28.20;25.30;;;;;;20833708;28;20071;-62
2021/07/08 19:52:03;;;;;;;6.60;2.85;;;28.10;25.70;;;;;;20833211;28;20041;-67
2021/07/08 20:02:06;;;;;;;10.32;6.70;;;27.90;25.30;;;;;;20832071;28;20103;-60
2021/07/08 20:12:08;;;;;;;9.80;5.10;;;27.90;25.20;;;;;;20830969;28;20050;-72
2021/07/08 20:22:10;;;;;;;12.65;4.93;;;27.70;25.50;;;;;;20830185;28;20084;-61
2021/07/08 20:32:13;;;;;;;13.50;4.65;;;27.60;25.80;;;;;;20829431;28;20057;-69
2021/07/08 20:42:16;;;;;;;13.57;4.60;;;27.50;26.20;;;;;;20829965;28;20050;-66
2021/07/08 20:52:18;;;;;;;11.02;6.63;;;27.20;26.90;;;;;;20829188;28;20136;-72
2021/07/08 21:02:20;;;;;;;8.93;6.18;;;27.10;27.40;;;;;;20830649;28;20053;-67
2021/07/08 21:12:22;;;;;;;10.38;5.93;;;26.90;28.10;;;;;;20840695;28;20060;-72
2021/07/08 21:22:24;;;;;;;8.02;6.20;;;26.70;28.50;;;;;;20844034;28;20049;-61
2021/07/08 21:32:27;;;;;;;8.95;5.68;;;26.60;28.90;;;;;;20841885;28;20045;-64
2021/07/08 21:42:29;;;;;;;8.88;5.32;;;26.50;29.40;;;;;;20841245;28;20057;-66
2021/07/08 21:52:32;;;;;;;14.85;8.45;;;26.30;29.90;;;;;;20842993;28;20396;-68
2021/07/08 22:02:33;;;;;;;9.02;3.38;;;26.10;30.80;;;;;;20841376;28;20053;-70
2021/07/08 22:12:37;;;;;;;9.98;2.70;;;25.90;31.60;;;;;;20840080;28;20486;-71
2021/07/08 22:22:39;;;;;;;5.18;2.40;;;25.50;32.30;;;;;;20838725;28;20060;-69
2021/07/08 22:32:41;;;;;;;6.10;2.70;;;25.10;32.80;;;;;;20838378;28;20052;-67
2021/07/08 22:42:42;;;;;;;3.20;2.08;;;24.90;33.10;;;;;;20836881;28;20056;-63
2021/07/08 22:52:45;;;;;;;;;;;24.60;33.50;;;;;;20836552;28;20045;-69
2021/07/08 23:02:47;;;;;;;4.97;2.38;;;24.20;34.10;;;;;;20836196;28;19995;-65
2021/07/08 23:12:49;;;;;;;6.55;2.33;;;24.20;34.90;;;;;;20835540;28;20124;-66
2021/07/08 23:22:51;;;;;;;5.00;1.97;;;24.00;35.20;;;;;;20836408;28;20057;-70
2021/07/08 23:32:53;;;;;;;4.18;1.73;;;24.00;34.90;;;;;;20837361;28;20294;-71
